sensor_id;sensor_type;location;lat;lon;timestamp;pressure;altitude;pressure_sealevel;temperature;humidity
44127;BME280;29786;50.798;7.302;2023-11-18T00:00:08;100040;;;3.83;100
44127;BME280;29786;50.798;7.302;2023-11-18T00:01:08;100040;;;3.89;100
44127;BME280;29786;50.798;7.302;2023-11-18T00:02:08;100040;;;3.93;100
44127;BME280;29786;50.798;7.302;2023-11-18T00:03:08;100040;;;4.02;100
44127;BME280;29786;50.798;7.302;2023-11-18T00:04:09;100030;;;3.98;100
44127;BME280;29786;50.798;7.302;2023-11-18T00:05:09;100030;;;3.93;100
44127;BME280;29786;50.798;7.302;2023-11-18T00:06:08;100030;;;3.96;100
44127;BME280;29786;50.798;7.302;2023-11-18T00:07:08;100030;;;3.98;100
44127;BME280;29786;50.798;7.302;2023-11-18T00:08:08;100020;;;4.02;100
44127;BME280;29786;50.798;7.302;2023-11-18T00:09:08;100030;;;4.07;100
44127;BME280;29786;50.798;7.302;2023-11-18T00:10:09;100030;;;4.08;100
44127;BME280;29786;50.798;7.302;2023-11-18T00:11:09;100030;;;4.05;100
44127;BME280;29786;50.798;7.302;2023-11-18T00:12:08;100020;;;4.03;100
44127;BME280;29786;50.798;7.302;2023-11-18T00:13:08;100030;;;4.06;100
44127;BME280;29786;50.798;7.302;2023-11-18T00:14:09;100030;;;4.09;100
44127;BME280;29786;50.798;7.302;2023-11-18T00:15:09;100030;;;4.11;100
44127;BME280;29786;50.798;7.302;2023-11-18T00:16:09;100030;;;4.07;100
44127;BME280;29786;50.798;7.302;2023-11-18T00:17:08;100030;;;4.04;100
44127;BME280;29786;50.798;7.302;2023-11-18T00:18:08;100030;;;4.07;100
44127;BME280;29786;50.798;7.302;2023-11-18T00:19:08;100030;;;4.06;100
44127;BME280;29786;50.798;7.302;2023-11-18T00:20:08;100030;;;4.07;100
44127;BME280;29786;50.798;7.302;2023-11-18T00:21:09;100030;;;4.11;100
44127;BME280;29786;50.798;7.302;2023-11-18T00:22:08;100030;;;4.05;100
44127;BME280;29786;50.798;7.302;2023-11-18T00:23:08;100030;;;4.03;100
44127;BME280;29786;50.798;7.302;2023-11-18T00:24:08;100030;;;4.03;100
44127;BME280;29786;50.798;7.302;2023-11-18T00:25:08;100030;;;4.07;100
44127;BME280;29786;50.798;7.302;2023-11-18T00:26:08;100030;;;3.98;100
44127;BME280;29786;50.798;7.302;2023-11-18T00:27:08;100040;;;4.04;100
44127;BME280;29786;50.798;7.302;2023-11-18T00:28:08;100040;;;4.09;100
44127;BME280;29786;50.798;7.302;2023-11-18T00:29:08;100040;;;4.01;100
44127;BME280;29786;50.798;7.302;2023-11-18T00:30:08;100040;;;4.1;100
44127;BME280;29786;50.798;7.302;2023-11-18T00:31:08;100040;;;4.02;100
44127;BME280;29786;50.798;7.302;2023-11-18T00:32:08;100050;;;4.02;100
44127;BME280;29786;50.798;7.302;2023-11-18T00:33:08;100050;;;4.11;100
44127;BME280;29786;50.798;7.302;2023-11-18T00:34:08;100050;;;4.1;100
44127;BME280;29786;50.798;7.302;2023-11-18T00:35:08;100050;;;4.08;100
44127;BME280;29786;50.798;7.302;2023-11-18T00:36:08;100050;;;4.07;100
44127;BME280;29786;50.798;7.302;2023-11-18T00:37:08;100050;;;4.03;100
44127;BME280;29786;50.798;7.302;2023-11-18T00:38:08;100050;;;4.04;100
44127;BME280;29786;50.798;7.302;2023-11-18T00:39:08;100050;;;4.06;100
44127;BME280;29786;50.798;7.302;2023-11-18T00:40:08;100050;;;3.93;100
44127;BME280;29786;50.798;7.302;2023-11-18T00:41:08;100060;;;3.9;100
44127;BME280;29786;50.798;7.302;2023-11-18T00:42:08;100060;;;3.93;100
44127;BME280;29786;50.798;7.302;2023-11-18T00:43:08;100060;;;4.02;100
44127;BME280;29786;50.798;7.302;2023-11-18T00:44:08;100060;;;4.07;100
44127;BME280;29786;50.798;7.302;2023-11-18T00:45:08;100050;;;4.17;100
44127;BME280;29786;50.798;7.302;2023-11-18T00:46:08;100050;;;4.27;100
44127;BME280;29786;50.798;7.302;2023-11-18T00:47:08;100060;;;4.17;100
44127;BME280;29786;50.798;7.302;2023-11-18T00:48:18;100050;;;4.1;100
44127;BME280;29786;50.798;7.302;2023-11-18T00:49:12;100050;;;4.12;100
44127;BME280;29786;50.798;7.302;2023-11-18T00:50:08;100050;;;4.15;100
44127;BME280;29786;50.798;7.302;2023-11-18T00:51:08;100050;;;4.07;100
44127;BME280;29786;50.798;7.302;2023-11-18T00:52:08;100040;;;4.12;100
44127;BME280;29786;50.798;7.302;2023-11-18T00:53:08;100050;;;4.09;100
44127;BME280;29786;50.798;7.302;2023-11-18T00:54:08;100040;;;4.03;100
44127;BME280;29786;50.798;7.302;2023-11-18T00:55:08;100040;;;4.03;100
44127;BME280;29786;50.798;7.302;2023-11-18T00:56:08;100030;;;4;100
44127;BME280;29786;50.798;7.302;2023-11-18T00:57:08;100030;;;4;100
44127;BME280;29786;50.798;7.302;2023-11-18T00:58:08;100030;;;4.05;100
44127;BME280;29786;50.798;7.302;2023-11-18T00:59:08;100030;;;4.03;100
44127;BME280;29786;50.798;7.302;2023-11-18T01:00:11;100030;;;4.09;100
44127;BME280;29786;50.798;7.302;2023-11-18T01:01:08;100030;;;3.99;100
44127;BME280;29786;50.798;7.302;2023-11-18T01:02:08;100030;;;3.98;100
44127;BME280;29786;50.798;7.302;2023-11-18T01:03:08;100030;;;4.01;100
44127;BME280;29786;50.798;7.302;2023-11-18T01:04:08;100030;;;4.02;100
44127;BME280;29786;50.798;7.302;2023-11-18T01:05:09;100030;;;4.02;100
44127;BME280;29786;50.798;7.302;2023-11-18T01:06:08;100030;;;4.03;100
44127;BME280;29786;50.798;7.302;2023-11-18T01:07:08;100030;;;4.07;100
44127;BME280;29786;50.798;7.302;2023-11-18T01:08:08;100030;;;4.07;100
44127;BME280;29786;50.798;7.302;2023-11-18T01:09:08;100030;;;4.08;100
44127;BME280;29786;50.798;7.302;2023-11-18T01:10:08;100030;;;4.1;100
44127;BME280;29786;50.798;7.302;2023-11-18T01:11:08;100030;;;4.07;100
44127;BME280;29786;50.798;7.302;2023-11-18T01:12:08;100030;;;4.05;100
44127;BME280;29786;50.798;7.302;2023-11-18T01:13:08;100020;;;4.01;100
44127;BME280;29786;50.798;7.302;2023-11-18T01:14:08;100020;;;4.02;100
44127;BME280;29786;50.798;7.302;2023-11-18T01:15:08;100030;;;3.98;100
44127;BME280;29786;50.798;7.302;2023-11-18T01:16:08;100020;;;4.01;100
44127;BME280;29786;50.798;7.302;2023-11-18T01:17:08;100020;;;4.01;100
44127;BME280;29786;50.798;7.302;2023-11-18T01:18:08;100020;;;3.97;100
44127;BME280;29786;50.798;7.302;2023-11-18T01:19:08;100020;;;3.96;100
44127;BME280;29786;50.798;7.302;2023-11-18T01:20:08;100020;;;3.95;100
44127;BME280;29786;50.798;7.302;2023-11-18T01:21:08;100020;;;3.92;100
44127;BME280;29786;50.798;7.302;2023-11-18T01:22:08;100020;;;3.99;100
44127;BME280;29786;50.798;7.302;2023-11-18T01:23:08;100020;;;4.01;100
44127;BME280;29786;50.798;7.302;2023-11-18T01:24:08;100020;;;3.92;100
44127;BME280;29786;50.798;7.302;2023-11-18T01:25:08;100020;;;3.92;100
44127;BME280;29786;50.798;7.302;2023-11-18T01:26:08;100020;;;3.88;100
44127;BME280;29786;50.798;7.302;2023-11-18T01:27:08;100020;;;3.92;100
44127;BME280;29786;50.798;7.302;2023-11-18T01:28:08;100020;;;3.88;100
44127;BME280;29786;50.798;7.302;2023-11-18T01:29:08;100030;;;3.82;100
44127;BME280;29786;50.798;7.302;2023-11-18T01:30:08;100030;;;3.87;100
44127;BME280;29786;50.798;7.302;2023-11-18T01:31:09;100030;;;3.88;100
44127;BME280;29786;50.798;7.302;2023-11-18T01:32:08;100030;;;3.91;100
44127;BME280;29786;50.798;7.302;2023-11-18T01:33:08;100030;;;3.93;100
44127;BME280;29786;50.798;7.302;2023-11-18T01:34:08;100040;;;3.93;100
44127;BME280;29786;50.798;7.302;2023-11-18T01:35:09;100040;;;4;100
44127;BME280;29786;50.798;7.302;2023-11-18T01:36:08;100040;;;3.98;100
44127;BME280;29786;50.798;7.302;2023-11-18T01:37:08;100040;;;4;100
44127;BME280;29786;50.798;7.302;2023-11-18T01:38:08;100040;;;3.96;100
44127;BME280;29786;50.798;7.302;2023-11-18T01:39:08;100040;;;3.96;100
44127;BME280;29786;50.798;7.302;2023-11-18T01:40:08;100040;;;3.94;100
44127;BME280;29786;50.798;7.302;2023-11-18T01:41:08;100050;;;3.83;100
44127;BME280;29786;50.798;7.302;2023-11-18T01:42:08;100050;;;3.83;100
44127;BME280;29786;50.798;7.302;2023-11-18T01:43:09;100050;;;3.77;100
44127;BME280;29786;50.798;7.302;2023-11-18T01:44:08;100050;;;3.78;100
44127;BME280;29786;50.798;7.302;2023-11-18T01:45:09;100050;;;3.83;100
44127;BME280;29786;50.798;7.302;2023-11-18T01:46:09;100050;;;3.84;100
44127;BME280;29786;50.798;7.302;2023-11-18T01:47:08;100050;;;3.8;100
44127;BME280;29786;50.798;7.302;2023-11-18T01:48:08;100050;;;3.84;100
44127;BME280;29786;50.798;7.302;2023-11-18T01:49:08;100050;;;3.91;100
44127;BME280;29786;50.798;7.302;2023-11-18T01:50:09;100050;;;3.96;100
44127;BME280;29786;50.798;7.302;2023-11-18T01:51:08;100050;;;3.96;100
44127;BME280;29786;50.798;7.302;2023-11-18T01:52:09;100050;;;3.95;100
44127;BME280;29786;50.798;7.302;2023-11-18T01:53:09;100060;;;3.9;100
44127;BME280;29786;50.798;7.302;2023-11-18T01:54:08;100060;;;3.94;100
44127;BME280;29786;50.798;7.302;2023-11-18T01:55:08;100060;;;3.95;100
44127;BME280;29786;50.798;7.302;2023-11-18T01:56:08;100060;;;3.94;100
44127;BME280;29786;50.798;7.302;2023-11-18T01:57:08;100050;;;3.93;100
44127;BME280;29786;50.798;7.302;2023-11-18T01:58:08;100050;;;3.88;100
44127;BME280;29786;50.798;7.302;2023-11-18T01:59:08;100050;;;3.95;100
44127;BME280;29786;50.798;7.302;2023-11-18T02:00:08;100050;;;3.98;100
44127;BME280;29786;50.798;7.302;2023-11-18T02:01:08;100050;;;3.93;100
44127;BME280;29786;50.798;7.302;2023-11-18T02:02:08;100050;;;3.86;100
44127;BME280;29786;50.798;7.302;2023-11-18T02:03:08;100050;;;3.86;100
44127;BME280;29786;50.798;7.302;2023-11-18T02:04:08;100050;;;3.9;100
44127;BME280;29786;50.798;7.302;2023-11-18T02:05:08;100050;;;3.95;100
44127;BME280;29786;50.798;7.302;2023-11-18T02:06:08;100050;;;3.96;100
44127;BME280;29786;50.798;7.302;2023-11-18T02:07:08;100040;;;3.95;100
44127;BME280;29786;50.798;7.302;2023-11-18T02:08:08;100040;;;3.94;100
44127;BME280;29786;50.798;7.302;2023-11-18T02:09:08;100040;;;3.97;100
44127;BME280;29786;50.798;7.302;2023-11-18T02:10:08;100040;;;3.97;100
44127;BME280;29786;50.798;7.302;2023-11-18T02:11:17;100040;;;3.97;100
44127;BME280;29786;50.798;7.302;2023-11-18T02:12:14;100050;;;3.99;100
44127;BME280;29786;50.798;7.302;2023-11-18T02:13:24;100050;;;3.99;100
44127;BME280;29786;50.798;7.302;2023-11-18T02:14:10;100050;;;4.02;100
44127;BME280;29786;50.798;7.302;2023-11-18T02:15:08;100040;;;3.97;100
44127;BME280;29786;50.798;7.302;2023-11-18T02:16:08;100040;;;4.01;100
44127;BME280;29786;50.798;7.302;2023-11-18T02:17:09;100040;;;4.01;100
44127;BME280;29786;50.798;7.302;2023-11-18T02:18:08;100040;;;3.98;100
44127;BME280;29786;50.798;7.302;2023-11-18T02:19:09;100040;;;3.99;100
44127;BME280;29786;50.798;7.302;2023-11-18T02:20:08;100030;;;4.02;100
44127;BME280;29786;50.798;7.302;2023-11-18T02:21:08;100040;;;4.06;100
44127;BME280;29786;50.798;7.302;2023-11-18T02:22:08;100040;;;4.08;100
44127;BME280;29786;50.798;7.302;2023-11-18T02:23:08;100030;;;4.11;100
44127;BME280;29786;50.798;7.302;2023-11-18T02:24:08;100030;;;4.14;100
44127;BME280;29786;50.798;7.302;2023-11-18T02:25:10;100030;;;4.17;100
44127;BME280;29786;50.798;7.302;2023-11-18T02:26:09;100020;;;4.19;100
44127;BME280;29786;50.798;7.302;2023-11-18T02:27:08;100020;;;4.11;100
44127;BME280;29786;50.798;7.302;2023-11-18T02:28:08;100020;;;4.16;100
44127;BME280;29786;50.798;7.302;2023-11-18T02:29:08;100030;;;4.12;100
44127;BME280;29786;50.798;7.302;2023-11-18T02:30:08;100030;;;4.08;100
44127;BME280;29786;50.798;7.302;2023-11-18T02:31:10;100030;;;4.03;100
44127;BME280;29786;50.798;7.302;2023-11-18T02:32:11;100030;;;4.1;100
44127;BME280;29786;50.798;7.302;2023-11-18T02:33:27;100030;;;4.13;100
44127;BME280;29786;50.798;7.302;2023-11-18T02:34:12;100030;;;4.15;100
44127;BME280;29786;50.798;7.302;2023-11-18T02:35:11;100030;;;4.21;100
44127;BME280;29786;50.798;7.302;2023-11-18T02:36:09;100030;;;4.17;100
44127;BME280;29786;50.798;7.302;2023-11-18T02:37:08;100030;;;4.14;100
44127;BME280;29786;50.798;7.302;2023-11-18T02:38:08;100030;;;4.13;100
44127;BME280;29786;50.798;7.302;2023-11-18T02:39:11;100030;;;4.11;100
44127;BME280;29786;50.798;7.302;2023-11-18T02:40:09;100030;;;4.09;100
44127;BME280;29786;50.798;7.302;2023-11-18T02:41:09;100030;;;4.12;100
44127;BME280;29786;50.798;7.302;2023-11-18T02:42:09;100030;;;4.11;100
44127;BME280;29786;50.798;7.302;2023-11-18T02:43:08;100030;;;4.13;100
44127;BME280;29786;50.798;7.302;2023-11-18T02:44:08;100030;;;4.12;100
44127;BME280;29786;50.798;7.302;2023-11-18T02:45:08;100030;;;4.15;100
44127;BME280;29786;50.798;7.302;2023-11-18T02:46:08;100030;;;4.11;100
44127;BME280;29786;50.798;7.302;2023-11-18T02:47:08;100030;;;4.1;100
44127;BME280;29786;50.798;7.302;2023-11-18T02:48:08;100030;;;4.14;100
44127;BME280;29786;50.798;7.302;2023-11-18T02:49:09;100030;;;4.16;100
44127;BME280;29786;50.798;7.302;2023-11-18T02:50:08;100040;;;4.15;100
44127;BME280;29786;50.798;7.302;2023-11-18T02:51:08;100030;;;4.19;100
44127;BME280;29786;50.798;7.302;2023-11-18T02:52:08;100030;;;4.11;100
44127;BME280;29786;50.798;7.302;2023-11-18T02:53:08;100030;;;4.15;100
44127;BME280;29786;50.798;7.302;2023-11-18T02:54:08;100030;;;4.12;100
44127;BME280;29786;50.798;7.302;2023-11-18T02:55:08;100030;;;4.16;100
44127;BME280;29786;50.798;7.302;2023-11-18T02:56:08;100030;;;4.07;100
44127;BME280;29786;50.798;7.302;2023-11-18T02:57:08;100030;;;4.03;100
44127;BME280;29786;50.798;7.302;2023-11-18T02:58:08;100030;;;4.14;100
44127;BME280;29786;50.798;7.302;2023-11-18T02:59:08;100030;;;4.13;100
44127;BME280;29786;50.798;7.302;2023-11-18T03:00:08;100030;;;4.17;100
44127;BME280;29786;50.798;7.302;2023-11-18T03:01:08;100020;;;4.13;100
44127;BME280;29786;50.798;7.302;2023-11-18T03:02:08;100010;;;4.09;100
44127;BME280;29786;50.798;7.302;2023-11-18T03:03:08;100010;;;4.14;100
44127;BME280;29786;50.798;7.302;2023-11-18T03:04:08;100020;;;4.17;100
44127;BME280;29786;50.798;7.302;2023-11-18T03:05:08;100010;;;4.1;100
44127;BME280;29786;50.798;7.302;2023-11-18T03:06:08;100010;;;4.05;100
44127;BME280;29786;50.798;7.302;2023-11-18T03:07:08;100010;;;3.97;100
44127;BME280;29786;50.798;7.302;2023-11-18T03:08:08;100010;;;3.96;100
44127;BME280;29786;50.798;7.302;2023-11-18T03:09:08;100010;;;4.08;100
44127;BME280;29786;50.798;7.302;2023-11-18T03:10:08;100020;;;3.98;100
44127;BME280;29786;50.798;7.302;2023-11-18T03:11:08;100010;;;4.04;100
44127;BME280;29786;50.798;7.302;2023-11-18T03:12:08;100020;;;4.05;100
44127;BME280;29786;50.798;7.302;2023-11-18T03:13:08;100020;;;4.11;100
44127;BME280;29786;50.798;7.302;2023-11-18T03:14:08;100020;;;4.13;100
44127;BME280;29786;50.798;7.302;2023-11-18T03:15:08;100030;;;4.19;100
44127;BME280;29786;50.798;7.302;2023-11-18T03:16:08;100030;;;4.23;100
44127;BME280;29786;50.798;7.302;2023-11-18T03:17:08;100030;;;4.19;100
44127;BME280;29786;50.798;7.302;2023-11-18T03:18:08;100030;;;4.17;100
44127;BME280;29786;50.798;7.302;2023-11-18T03:19:08;100030;;;4.11;100
44127;BME280;29786;50.798;7.302;2023-11-18T03:20:08;100030;;;4.13;100
44127;BME280;29786;50.798;7.302;2023-11-18T03:21:12;100030;;;4.11;100
44127;BME280;29786;50.798;7.302;2023-11-18T03:22:08;100040;;;4.17;100
44127;BME280;29786;50.798;7.302;2023-11-18T03:23:08;100040;;;4.23;100
44127;BME280;29786;50.798;7.302;2023-11-18T03:24:08;100040;;;4.25;100
44127;BME280;29786;50.798;7.302;2023-11-18T03:25:08;100040;;;4.28;100
44127;BME280;29786;50.798;7.302;2023-11-18T03:26:09;100040;;;4.36;100
44127;BME280;29786;50.798;7.302;2023-11-18T03:27:08;100040;;;4.34;100
44127;BME280;29786;50.798;7.302;2023-11-18T03:28:08;100030;;;4.3;100
44127;BME280;29786;50.798;7.302;2023-11-18T03:29:08;100030;;;4.25;100
44127;BME280;29786;50.798;7.302;2023-11-18T03:30:09;100030;;;4.29;100
44127;BME280;29786;50.798;7.302;2023-11-18T03:31:08;100030;;;4.28;100
44127;BME280;29786;50.798;7.302;2023-11-18T03:32:08;100020;;;4.26;100
44127;BME280;29786;50.798;7.302;2023-11-18T03:34:08;100020;;;4.21;100
44127;BME280;29786;50.798;7.302;2023-11-18T03:35:08;100010;;;4.23;100
44127;BME280;29786;50.798;7.302;2023-11-18T03:36:08;100010;;;4.19;100
44127;BME280;29786;50.798;7.302;2023-11-18T03:37:08;100010;;;4.27;100
44127;BME280;29786;50.798;7.302;2023-11-18T03:38:08;100010;;;4.21;100
44127;BME280;29786;50.798;7.302;2023-11-18T03:39:08;100010;;;4.16;100
44127;BME280;29786;50.798;7.302;2023-11-18T03:40:09;100010;;;4.15;100
44127;BME280;29786;50.798;7.302;2023-11-18T03:41:08;100010;;;4.15;100
44127;BME280;29786;50.798;7.302;2023-11-18T03:42:08;100010;;;4.19;100
44127;BME280;29786;50.798;7.302;2023-11-18T03:43:08;100010;;;4.21;100
44127;BME280;29786;50.798;7.302;2023-11-18T03:44:08;100000;;;4.21;100
44127;BME280;29786;50.798;7.302;2023-11-18T03:45:08;100000;;;4.23;100
44127;BME280;29786;50.798;7.302;2023-11-18T03:46:08;99990;;;4.16;100
44127;BME280;29786;50.798;7.302;2023-11-18T03:47:08;99990;;;4.1;100
44127;BME280;29786;50.798;7.302;2023-11-18T03:48:08;99990;;;4.06;100
44127;BME280;29786;50.798;7.302;2023-11-18T03:49:08;99990;;;4.03;100
44127;BME280;29786;50.798;7.302;2023-11-18T03:50:08;99990;;;4.03;100
44127;BME280;29786;50.798;7.302;2023-11-18T03:51:08;99990;;;4.02;100
44127;BME280;29786;50.798;7.302;2023-11-18T03:52:08;99990;;;4.12;100
44127;BME280;29786;50.798;7.302;2023-11-18T03:53:08;99980;;;4.1;100
44127;BME280;29786;50.798;7.302;2023-11-18T03:54:08;99980;;;4.07;100
44127;BME280;29786;50.798;7.302;2023-11-18T03:55:08;99980;;;3.98;100
44127;BME280;29786;50.798;7.302;2023-11-18T03:56:08;99980;;;3.99;100
44127;BME280;29786;50.798;7.302;2023-11-18T03:57:08;99980;;;3.94;100
44127;BME280;29786;50.798;7.302;2023-11-18T03:58:08;99990;;;3.95;100
44127;BME280;29786;50.798;7.302;2023-11-18T03:59:08;99990;;;4.01;100
44127;BME280;29786;50.798;7.302;2023-11-18T04:00:08;99990;;;3.94;100
44127;BME280;29786;50.798;7.302;2023-11-18T04:01:08;99990;;;3.95;100
44127;BME280;29786;50.798;7.302;2023-11-18T04:02:08;99990;;;4.01;100
44127;BME280;29786;50.798;7.302;2023-11-18T04:03:08;100000;;;4.03;100
44127;BME280;29786;50.798;7.302;2023-11-18T04:04:08;100000;;;4.01;100
44127;BME280;29786;50.798;7.302;2023-11-18T04:05:08;100000;;;3.92;100
44127;BME280;29786;50.798;7.302;2023-11-18T04:06:08;100000;;;3.82;100
44127;BME280;29786;50.798;7.302;2023-11-18T04:07:08;100000;;;3.83;100
44127;BME280;29786;50.798;7.302;2023-11-18T04:08:08;100010;;;3.81;100
44127;BME280;29786;50.798;7.302;2023-11-18T04:09:08;100010;;;3.77;100
44127;BME280;29786;50.798;7.302;2023-11-18T04:10:08;100010;;;3.79;100
44127;BME280;29786;50.798;7.302;2023-11-18T04:11:08;100010;;;3.76;100
44127;BME280;29786;50.798;7.302;2023-11-18T04:12:08;100010;;;3.73;100
44127;BME280;29786;50.798;7.302;2023-11-18T04:13:08;100020;;;3.77;100
44127;BME280;29786;50.798;7.302;2023-11-18T04:14:08;100020;;;3.77;100
44127;BME280;29786;50.798;7.302;2023-11-18T04:15:08;100020;;;3.72;100
44127;BME280;29786;50.798;7.302;2023-11-18T04:16:10;100010;;;3.71;100
44127;BME280;29786;50.798;7.302;2023-11-18T04:17:08;100020;;;3.7;100
44127;BME280;29786;50.798;7.302;2023-11-18T04:18:08;100020;;;3.7;100
44127;BME280;29786;50.798;7.302;2023-11-18T04:19:09;100020;;;3.75;100
44127;BME280;29786;50.798;7.302;2023-11-18T04:20:09;100020;;;3.76;100
44127;BME280;29786;50.798;7.302;2023-11-18T04:21:09;100020;;;3.8;100
44127;BME280;29786;50.798;7.302;2023-11-18T04:22:08;100020;;;3.79;100
44127;BME280;29786;50.798;7.302;2023-11-18T04:23:08;100020;;;3.77;100
44127;BME280;29786;50.798;7.302;2023-11-18T04:24:08;100020;;;3.69;100
44127;BME280;29786;50.798;7.302;2023-11-18T04:25:09;100020;;;3.72;100
44127;BME280;29786;50.798;7.302;2023-11-18T04:26:08;100020;;;3.67;100
44127;BME280;29786;50.798;7.302;2023-11-18T04:27:08;100020;;;3.66;100
44127;BME280;29786;50.798;7.302;2023-11-18T04:28:08;100020;;;3.69;100
44127;BME280;29786;50.798;7.302;2023-11-18T04:29:08;100010;;;3.65;100
44127;BME280;29786;50.798;7.302;2023-11-18T04:30:08;100010;;;3.6;100
44127;BME280;29786;50.798;7.302;2023-11-18T04:31:08;100010;;;3.55;100
44127;BME280;29786;50.798;7.302;2023-11-18T04:32:08;100010;;;3.58;100
44127;BME280;29786;50.798;7.302;2023-11-18T04:33:08;100010;;;3.62;100
44127;BME280;29786;50.798;7.302;2023-11-18T04:34:08;100020;;;3.66;100
44127;BME280;29786;50.798;7.302;2023-11-18T04:35:08;100010;;;3.67;100
44127;BME280;29786;50.798;7.302;2023-11-18T04:36:09;100010;;;3.68;100
44127;BME280;29786;50.798;7.302;2023-11-18T04:37:08;100000;;;3.67;100
44127;BME280;29786;50.798;7.302;2023-11-18T04:38:08;100000;;;3.66;100
44127;BME280;29786;50.798;7.302;2023-11-18T04:39:08;100000;;;3.67;100
44127;BME280;29786;50.798;7.302;2023-11-18T04:40:08;99990;;;3.66;100
44127;BME280;29786;50.798;7.302;2023-11-18T04:41:08;99990;;;3.64;100
44127;BME280;29786;50.798;7.302;2023-11-18T04:42:08;100000;;;3.66;100
44127;BME280;29786;50.798;7.302;2023-11-18T04:43:08;100000;;;3.74;100
44127;BME280;29786;50.798;7.302;2023-11-18T04:44:08;99990;;;3.73;100
44127;BME280;29786;50.798;7.302;2023-11-18T04:45:08;99990;;;3.77;100
44127;BME280;29786;50.798;7.302;2023-11-18T04:46:08;99990;;;3.67;100
44127;BME280;29786;50.798;7.302;2023-11-18T04:47:08;99990;;;3.75;100
44127;BME280;29786;50.798;7.302;2023-11-18T04:48:08;99990;;;3.81;100
44127;BME280;29786;50.798;7.302;2023-11-18T04:49:08;99980;;;3.78;100
44127;BME280;29786;50.798;7.302;2023-11-18T04:50:09;99980;;;3.72;100
44127;BME280;29786;50.798;7.302;2023-11-18T04:51:08;99980;;;3.69;100
44127;BME280;29786;50.798;7.302;2023-11-18T04:52:08;99980;;;3.65;100
44127;BME280;29786;50.798;7.302;2023-11-18T04:53:08;99980;;;3.61;100
44127;BME280;29786;50.798;7.302;2023-11-18T04:54:08;99980;;;3.65;100
44127;BME280;29786;50.798;7.302;2023-11-18T04:55:08;99970;;;3.66;100
44127;BME280;29786;50.798;7.302;2023-11-18T04:56:08;99970;;;3.67;100
44127;BME280;29786;50.798;7.302;2023-11-18T04:57:08;99970;;;3.67;100
44127;BME280;29786;50.798;7.302;2023-11-18T04:58:08;99970;;;3.6;100
44127;BME280;29786;50.798;7.302;2023-11-18T04:59:08;99970;;;3.59;100
44127;BME280;29786;50.798;7.302;2023-11-18T05:00:08;99960;;;3.56;100
44127;BME280;29786;50.798;7.302;2023-11-18T05:01:08;99960;;;3.6;100
44127;BME280;29786;50.798;7.302;2023-11-18T05:02:08;99960;;;3.65;100
44127;BME280;29786;50.798;7.302;2023-11-18T05:03:08;99960;;;3.68;100
44127;BME280;29786;50.798;7.302;2023-11-18T05:04:08;99960;;;3.71;100
44127;BME280;29786;50.798;7.302;2023-11-18T05:05:09;99960;;;3.67;100
44127;BME280;29786;50.798;7.302;2023-11-18T05:06:08;99960;;;3.66;100
44127;BME280;29786;50.798;7.302;2023-11-18T05:07:08;99950;;;3.59;100
44127;BME280;29786;50.798;7.302;2023-11-18T05:08:17;99950;;;3.59;100
44127;BME280;29786;50.798;7.302;2023-11-18T05:09:08;99950;;;3.56;100
44127;BME280;29786;50.798;7.302;2023-11-18T05:10:09;99950;;;3.49;100
44127;BME280;29786;50.798;7.302;2023-11-18T05:11:08;99950;;;3.52;100
44127;BME280;29786;50.798;7.302;2023-11-18T05:12:08;99950;;;3.58;100
44127;BME280;29786;50.798;7.302;2023-11-18T05:13:08;99950;;;3.53;100
44127;BME280;29786;50.798;7.302;2023-11-18T05:14:08;99950;;;3.54;100
44127;BME280;29786;50.798;7.302;2023-11-18T05:15:09;99950;;;3.57;100
44127;BME280;29786;50.798;7.302;2023-11-18T05:16:08;99950;;;3.58;100
44127;BME280;29786;50.798;7.302;2023-11-18T05:17:08;99950;;;3.58;100
44127;BME280;29786;50.798;7.302;2023-11-18T05:18:08;99940;;;3.62;100
44127;BME280;29786;50.798;7.302;2023-11-18T05:19:08;99940;;;3.59;100
44127;BME280;29786;50.798;7.302;2023-11-18T05:20:08;99940;;;3.58;100
44127;BME280;29786;50.798;7.302;2023-11-18T05:21:08;99930;;;3.48;100
44127;BME280;29786;50.798;7.302;2023-11-18T05:22:09;99940;;;3.52;100
44127;BME280;29786;50.798;7.302;2023-11-18T05:23:08;99940;;;3.59;100
44127;BME280;29786;50.798;7.302;2023-11-18T05:24:08;99940;;;3.59;100
44127;BME280;29786;50.798;7.302;2023-11-18T05:25:08;99940;;;3.51;100
44127;BME280;29786;50.798;7.302;2023-11-18T05:26:08;99940;;;3.54;100
44127;BME280;29786;50.798;7.302;2023-11-18T05:27:08;99940;;;3.5;100
44127;BME280;29786;50.798;7.302;2023-11-18T05:28:08;99940;;;3.52;100
44127;BME280;29786;50.798;7.302;2023-11-18T05:29:08;99930;;;3.57;100
44127;BME280;29786;50.798;7.302;2023-11-18T05:30:08;99930;;;3.56;100
44127;BME280;29786;50.798;7.302;2023-11-18T05:31:08;99930;;;3.55;100
44127;BME280;29786;50.798;7.302;2023-11-18T05:32:08;99930;;;3.58;100
44127;BME280;29786;50.798;7.302;2023-11-18T05:33:08;99930;;;3.58;100
44127;BME280;29786;50.798;7.302;2023-11-18T05:34:08;99930;;;3.57;100
44127;BME280;29786;50.798;7.302;2023-11-18T05:35:08;99930;;;3.53;100
44127;BME280;29786;50.798;7.302;2023-11-18T05:36:08;99930;;;3.59;100
44127;BME280;29786;50.798;7.302;2023-11-18T05:37:08;99930;;;3.57;100
44127;BME280;29786;50.798;7.302;2023-11-18T05:38:08;99920;;;3.54;100
44127;BME280;29786;50.798;7.302;2023-11-18T05:39:08;99920;;;3.57;100
44127;BME280;29786;50.798;7.302;2023-11-18T05:40:09;99920;;;3.49;100
44127;BME280;29786;50.798;7.302;2023-11-18T05:41:08;99920;;;3.51;100
44127;BME280;29786;50.798;7.302;2023-11-18T05:42:09;99910;;;3.52;100